cliquez pour ajouter le site Runraid à vos favoris  English version (google)  Retour à l'accueil Ecrire à l'auteur du site Runraid : Michel Jourdan



Les prochaines courses


Les derniers résultats

cliquez pour visualiser la page complète relatant la chronologie des éruptions du Piton de la Fournaise
éruptions Piton de la Fournaise


Ile de La Réunion

 Diagonale des Fous 

Nouveautés du site

Ecrire au créateur du site : Michel Jourdan
Contact


2017-11-05 - Triathlon La Croix du Sud 

Pour consulter le palmarès d'un coureur, un clic sur son nom !

Vous avez des remarques, corrections, ... sur ces résultats , un clic sur --> pour me transmettre toute information concernant les classements


Triathlon La Croix du Sud  - 2017 : classement des 109 finishers
Place Nom Temps Cat. Club Sexe Clt/cat.
Place Nom Temps Cat. Club Sexe Clt/cat.
1 HAUSS DAVID 01:20:38 S3M M 1 S3M 3
2 DEGHAM TOUMY 01:22:55 S4M M 1 S4M 2
3 CELESTE FABIEN 01:25:10 S1M TCSA M 1 S1M 26
4 SALMON BENOIT 01:25:38 S4M ORT M 2 S4M 111
5 GLAUDEL ROMAIN 01:26:36 CAM TCSA M 1 CAM 50
6 ISSARAMBE REFANE Sebastien 01:26:56 JUM LCT M 1 JUM 64
7 CELESTE Anthony 01:27:01 S2M LCT M 1 S2M 100
8 LEBRETON DAVID 01:27:13 V2M LCT M 1 V2M 81
9 HENZE Frederic 01:27:39 V2M ORT M 2 V2M 56
10 LE GOANVIC MICKAEL 01:30:42 V1M ORT M 1 V1M 78
11 PLAIRE Cedric 01:31:24 S3M RSTRI M 2 S3M 102
12 HOARAU Damien 01:32:47 JUM M 2 JUM 61
13 GLAUDEL JEAN CHRISTOPHE 01:33:16 V2M TCSA M 3 V2M 51
14 BLANC Pascal 01:33:28 V3M M 1 V3M 21
15 GENAIS YANN 01:33:52 V1M TCSD M 2 V1M 48
16 VALETTE RENALD 01:34:18 V1M LCT M 3 V1M 119
17 ISSARAMBE REFANE Olivier 01:34:24 JUM LCT M 3 JUM 65
18 SILBERSTEIN David 01:34:34 S4M M 3 S4M 114
19 NEFF david alexandre 01:34:39 V2M ORT M 4 V2M 94
20 MILLOT James 01:36:43 V2M M 5 V2M 187
21 JANNAULT clement 01:37:25 S2M M 2 S2M 67
22 LAURET Philippe 01:37:44 V3M TCSD M 2 V3M 76
23 LECUYER FRANCIS 01:37:52 V2M ORT M 6 V2M 83
24 GAY Frederic 01:38:08 S3M ORT M 3 S3M 46
25 TRAVERSAZ MATHIEU 01:38:24 S2M CAC M 3 S2M 117
26 KLENKLE GIL 01:40:16 V2M TCSD M 7 V2M 69
27 FERRERE LUDOVIC 01:41:03 S3M TCSA M 4 S3M 38
28 POIX Dorian 01:41:07 JUM M 4 JUM 105
29 BERNARDINI ENRICO 01:41:08 V2M CAC M 8 V2M 16
30 HOTTINGER Julius 01:43:02 S2M M 4 S2M 63
31 AUBERT Olivier 01:43:09 V1M LCT M 4 V1M 13
32 RAYNAUD christophe 01:43:15 V1M M 5 V1M 106
33 TISSERANT eloi 01:43:15 S4M LCT M 4 S4M 116
34 VANHELLE SIMON 01:43:27 S3M ORT M 5 S3M 120
35 AUGUSTE AYMERIC 01:44:02 CAM CAC M 2 CAM 14
36 OLIVIER richard 01:44:09 V2M TCSD M 9 V2M 96
37 BERSAC Germain 01:44:15 V1M LCT M 6 V1M 17
38 CELESTE ERIC 01:44:22 S4M TCSA M 5 S4M 27
39 RUBEL Patrick 01:44:26 V3M TCSD M 3 V3M 110
40 CREIGNOU antonin 01:45:06 S2M CAC M 5 S2M 30
41 BIZ STEPHANE 01:45:08 S4M M 6 S4M 20
42 BRUN Philippe 01:45:09 V2M LCT M 10 V2M 24
43 SEVELINGE Frederic 01:45:15 V1M TCSD M 7 V1M 113
44 GIRARD christian 01:45:21 V3M CAC M 4 V3M 49
45 BOYER Fabien 01:45:37 S4M M 7 S4M 23
46 GRAZIOSO Anthony 01:45:46 V1M M 8 V1M 42
47 LEPETIT Johana 01:46:08 S3F F 1 S3F 85
48 LAGRANGE eric 01:46:17 S4M TCSD M 8 S4M 73
49 FAYS MICKAEL 01:46:22 V1M TCSD M 9 V1M 37
50 LEBRETON Carl 01:46:38 V1M M 10 V1M 82
51 LE SOUQUET SYLVAN 01:46:47 V2M RSTRI M 11 V2M 79
52 MAZUE ROMAIN 01:47:30 S3M LCT M 6 S3M 92
53 COUDIERE Soizic 01:47:59 V1F RSTRI F 1 V1F 29
54 LEMARCHAND BRUNO 01:48:01 S4M M 9 S4M 84
55 BARRIERES NUNO 01:48:21 S3M M 7 S3M 124
56 LABONNE pierre 01:48:25 S3M M 8 S3M 72
57 FOUQUESOLLE reno 01:48:31 V1M M 11 V1M 43
58 FONTAINE Vincent Jules 01:48:52 S4M TCSD M 10 S4M 40
59 DEPUILLE Fabrice 01:48:53 V2M ORT M 12 V2M 35
60 NOUVEL Arnaud 01:49:24 V2M ORT M 13 V2M 95
61 ROBERT Kevin 01:49:52 S3M M 9 S3M 108
62 GALLOIS ORANE 01:49:52 S1F F 1 S1F 45
63 ARNAUD DOMINIQUE 01:49:59 V4F ORT F 1 V4F 9
64 CHOLAT David 01:50:00 S3M LCT M 10 S3M 28
65 LAUDREN Gwenael 01:50:15 S4M CAC M 11 S4M 75
66 JULY siegfried 01:50:17 V2M M 14 V2M 68
67 MARESCHAL Nicolas 01:50:35 S2M RSTRI M 6 S2M 90
68 GUILLER NICOLAS 01:50:44 S4M M 12 S4M 123
69 GUEDES gael 01:51:13 S4M M 13 S4M 53
70 KREDER Jean 01:51:19 V4M ORT M 1 V4M 71
71 POIRIER JESSICA 01:51:25 S3F F 2 S3F 104
72 LEBOUCHARD PIERRE 01:51:36 V2M BDN M 15 V2M 80
73 HAMON Eric 01:51:56 V1M LCT M 12 V1M 55
74 DANUBE maud 01:52:30 V1F CAC F 2 V1F 33
75 PICART Lauriane 01:53:39 S2F CAC F 1 S2F 99
76 PIERRE FRANCOIS 01:53:41 V2M LCT M 16 V2M 101
77 PAYET Alexandre 01:54:19 S4M M 14 S4M 97
78 LAMBERT marine 01:54:28 S1F F 2 S1F 74
79 BIT Beatrice 01:54:38 V2F TCSD F 1 V2F 19
80 SAUTRON ARMAND 01:55:09 V1M RSTRI M 13 V1M 112
81 ARNAUD WILFRID 01:56:04 V2M ORT M 17 V2M 8
82 RIVIERE JEAN JOHNNY 01:57:01 V2M ORT M 18 V2M 107
83 PELOUX PASCAL 01:58:26 V3M TCSD M 5 V3M 98
84 HOARAU GERARD 01:58:39 V1M CAC M 14 V1M 190
85 FIANU ADRIAN 01:59:04 V1M M 15 V1M 39
86 LE BLEIS Guenole 01:59:05 S2M M 7 S2M 77
87 BIGNON Nicolas 01:59:15 S4M LCT M 15 S4M 18
88 MADILHAC Arnaud 01:59:47 V1M M 16 V1M 88
89 HERBILLON Romain 02:00:16 V1M M 17 V1M 57
90 DENTROUX Quentin 02:00:29 S2M M 8 S2M 34
91 BOYER Francis 02:01:14 S2M M 9 S2M 22
92 FRAMBOISIER Gerard 02:02:42 V6M TCS M 1 V6M 44
93 JACQUOT JOFFROY Alban 02:03:55 S4M M 16 S4M 66
94 ENCONTRE JOEFFREY 02:04:43 V1M RSTRI M 18 V1M 36
95 DAMOUR Samuel 02:05:03 S2M M 10 S2M 32
96 ZABLOCKI Renaud 02:08:23 V5M M 1 V5M 121
97 GUIHARD Bertrand 02:08:38 V1M M 19 V1M 54
98 ARNAUD Michel 02:08:56 V4M ORT M 2 V4M 12
99 ANDRIEU HINAULT sylvia 02:10:51 S4F TCSD F 1 S4F 4
100 ROBERT Cyril 02:11:38 V2M M 19 V2M 109
101 RICHARD LORION 02:11:52 V2M M 20 V2M 125
102 CADET Francis 02:12:13 S2M LCT M 11 S2M 25
103 LORRAINE THIERRY 02:16:02 V3M TCSA M 6 V3M 87
104 BAROT KORVIN 02:18:10 CAM TCSA M 3 CAM 15
105 HOAREAU Mickael 02:18:40 S3M M 11 S3M 62
106 FOUGEROUSE Elsa 02:22:30 S2F F 2 S2F 41
107 NATIVEL Frederic 02:22:36 V1M M 20 V1M 93
108 LIEGAULT EMMANUEL 02:25:59 V6M M 2 V6M 86
109 LESPORT QUENTIN 02:56:22 CAM M 4 CAM 122


ReferencementCe site est listé dans la catégorie Sport : Sports extrêmes Dictionnaire
| Accueil | La Réunion  Vue du ciel | Météo | Cyclones | Volcan | Cirques de Mafate , Cilaos , Salazie | Photos Randonnées | Randonnées Réunion: Randos Espiègle , Courses montagne | Diagonale des Fous |  Marathon des Sables | Voyages Les stats du site | Fonds écran | Plan du site | Blog de runraid | Galerie photos Sport Réunion |